createdAt,value
2018-01-26T00:00:20.696Z,100487.41
2018-01-26T00:02:49.123Z,100484.91
2018-01-26T00:05:17.504Z,100481.88
2018-01-26T00:07:45.876Z,100474.41
2018-01-26T00:10:14.269Z,100478.30
2018-01-26T00:12:42.925Z,100469.74
2018-01-26T00:15:11.351Z,100470.03
2018-01-26T00:17:39.745Z,100468.13
2018-01-26T00:20:08.149Z,100465.24
2018-01-26T00:22:37.377Z,100469.53
2018-01-26T00:25:05.750Z,100476.30
2018-01-26T00:27:34.312Z,100472.59
2018-01-26T00:30:02.776Z,100477.97
2018-01-26T00:32:31.219Z,100473.73
2018-01-26T00:34:59.597Z,100475.38
2018-01-26T00:37:28.061Z,100472.03
2018-01-26T00:39:56.435Z,100468.27
2018-01-26T00:42:24.810Z,100466.80
2018-01-26T00:44:53.243Z,100461.75
2018-01-26T00:47:21.617Z,100462.39
2018-01-26T00:49:50.769Z,100465.80
2018-01-26T00:52:19.128Z,100465.95
2018-01-26T00:54:47.484Z,100468.98
2018-01-26T00:57:15.877Z,100471.33
2018-01-26T00:59:44.238Z,100477.50
2018-01-26T01:02:12.599Z,100485.02
2018-01-26T01:04:41.804Z,100481.84
2018-01-26T01:07:10.178Z,100487.08
2018-01-26T01:09:39.395Z,100484.20
2018-01-26T01:12:07.761Z,100470.13
2018-01-26T01:14:36.965Z,100472.91
2018-01-26T01:17:05.386Z,100462.60
2018-01-26T01:19:33.843Z,100457.34
2018-01-26T01:22:02.278Z,100462.66
2018-01-26T01:24:31.486Z,100453.28
2018-01-26T01:27:00.697Z,100456.41
2018-01-26T01:29:29.081Z,100454.08
2018-01-26T01:31:57.560Z,100451.05
2018-01-26T01:34:26.072Z,100451.99
2018-01-26T01:36:54.624Z,100455.43
2018-01-26T01:39:23.087Z,100458.66
2018-01-26T01:41:52.331Z,100453.96
2018-01-26T01:44:20.763Z,100455.11
2018-01-26T01:46:50.094Z,100455.66
2018-01-26T01:49:18.635Z,100453.81
2018-01-26T01:51:47.063Z,100459.87
2018-01-26T01:54:15.448Z,100454.84
2018-01-26T01:56:43.905Z,100451.08
2018-01-26T01:59:12.424Z,100447.59
2018-01-26T02:01:40.887Z,100450.64
2018-01-26T02:04:09.337Z,100442.97
2018-01-26T02:06:38.508Z,100440.97
2018-01-26T02:09:06.896Z,100439.12
2018-01-26T02:11:35.355Z,100438.97
2018-01-26T02:14:03.721Z,100448.58
2018-01-26T02:16:32.087Z,100440.65
2018-01-26T02:19:00.480Z,100449.58
2018-01-26T02:21:28.919Z,100440.44
2018-01-26T02:23:57.279Z,100441.09
2018-01-26T02:26:25.685Z,100445.17
2018-01-26T02:28:54.156Z,100441.09
2018-01-26T02:31:22.573Z,100442.64
2018-01-26T02:33:50.994Z,100432.27
2018-01-26T02:36:19.385Z,100430.63
2018-01-26T02:38:48.518Z,100431.45
2018-01-26T02:41:16.880Z,100442.58
2018-01-26T02:43:45.351Z,100441.11
2018-01-26T02:46:13.740Z,100444.41
2018-01-26T02:48:42.187Z,100441.59
2018-01-26T02:51:11.437Z,100447.83
2018-01-26T02:53:39.845Z,100447.50
2018-01-26T02:56:08.233Z,100455.33
2018-01-26T02:58:36.638Z,100453.59
2018-01-26T03:01:05.862Z,100450.69
2018-01-26T03:03:34.278Z,100445.58
2018-01-26T03:06:02.739Z,100447.23
2018-01-26T03:08:31.189Z,100447.67
2018-01-26T03:11:00.403Z,100452.25
2018-01-26T03:13:29.021Z,100454.93
2018-01-26T03:15:57.514Z,100458.27
2018-01-26T03:18:25.977Z,100457.25
2018-01-26T03:20:54.411Z,100456.44
2018-01-26T03:23:23.548Z,100461.50
2018-01-26T03:25:51.921Z,100463.03
2018-01-26T03:28:20.329Z,100468.08
2018-01-26T03:30:48.784Z,100465.55
2018-01-26T03:33:17.240Z,100466.78
2018-01-26T03:35:45.738Z,100474.80
2018-01-26T03:38:14.208Z,100471.37
2018-01-26T03:40:42.685Z,100473.63
2018-01-26T03:43:11.183Z,100479.27
2018-01-26T03:45:39.628Z,100482.38
2018-01-26T03:48:08.803Z,100486.97
2018-01-26T03:50:37.320Z,100486.99
2018-01-26T03:53:05.760Z,100492.55
2018-01-26T03:55:34.223Z,100494.56
2018-01-26T03:58:02.739Z,100491.00
2018-01-26T04:00:31.889Z,100483.63
2018-01-26T04:03:00.307Z,100489.93
2018-01-26T04:05:28.799Z,100495.25
2018-01-26T04:07:57.948Z,100500.34
2018-01-26T04:10:26.355Z,100494.27
2018-01-26T04:12:54.801Z,100495.02
2018-01-26T04:15:23.164Z,100495.64
2018-01-26T04:17:51.565Z,100498.78
2018-01-26T04:20:19.995Z,100505.16
2018-01-26T04:22:49.164Z,100508.17
2018-01-26T04:25:17.601Z,100502.06
2018-01-26T04:27:46.029Z,100509.46
2018-01-26T04:30:14.478Z,100509.66
2018-01-26T04:32:42.853Z,100506.43
2018-01-26T04:35:11.226Z,100504.26
2018-01-26T04:37:39.655Z,100499.42
2018-01-26T04:40:08.047Z,100496.17
2018-01-26T04:42:36.464Z,100496.31
2018-01-26T04:45:04.912Z,100496.72
2018-01-26T04:47:34.045Z,100500.36
2018-01-26T04:50:02.552Z,100501.05
2018-01-26T04:52:30.944Z,100508.03
2018-01-26T04:54:59.597Z,100507.20
2018-01-26T04:57:28.026Z,100514.23
2018-01-26T04:59:57.189Z,100512.02
2018-01-26T05:02:25.650Z,100503.89
2018-01-26T05:04:54.091Z,100505.77
2018-01-26T05:07:23.248Z,100514.89
2018-01-26T05:09:51.671Z,100515.52
2018-01-26T05:12:20.890Z,100517.91
2018-01-26T05:14:49.464Z,100517.58
2018-01-26T05:17:17.832Z,100516.84
2018-01-26T05:19:47.030Z,100507.20
2018-01-26T05:22:16.276Z,100521.93
2018-01-26T05:24:44.740Z,100526.83
2018-01-26T05:27:13.163Z,100523.02
2018-01-26T05:29:41.545Z,100509.91
2018-01-26T05:32:09.975Z,100518.21
2018-01-26T05:34:38.360Z,100535.47
2018-01-26T05:37:06.799Z,100531.39
2018-01-26T05:39:35.242Z,100533.59
2018-01-26T05:42:03.697Z,100534.31
2018-01-26T05:44:32.183Z,100535.11
2018-01-26T05:47:00.657Z,100537.31
2018-01-26T05:49:29.050Z,100539.28
2018-01-26T05:51:57.417Z,100553.08
2018-01-26T05:54:25.891Z,100553.21
2018-01-26T05:56:54.333Z,100554.98
2018-01-26T05:59:22.791Z,100562.67
2018-01-26T06:01:51.310Z,100563.23
2018-01-26T06:04:20.547Z,100562.09
2018-01-26T06:06:48.974Z,100556.69
2018-01-26T06:09:17.420Z,100557.50
2018-01-26T06:11:45.788Z,100568.95
2018-01-26T06:14:14.227Z,100573.09
2018-01-26T06:16:43.455Z,100568.63
2018-01-26T06:19:11.914Z,100573.61
2018-01-26T06:21:40.375Z,100576.72
2018-01-26T06:24:08.813Z,100581.92
2018-01-26T06:26:37.149Z,100579.95
2018-01-26T06:29:05.557Z,100581.52
2018-01-26T06:31:33.999Z,100580.88
2018-01-26T06:34:02.436Z,100582.34
2018-01-26T06:36:30.902Z,100585.34
2018-01-26T06:38:59.328Z,100582.32
2018-01-26T06:41:27.771Z,100593.64
2018-01-26T06:43:56.229Z,100595.61
2018-01-26T06:46:24.652Z,100605.80
2018-01-26T06:48:53.020Z,100606.33
2018-01-26T06:51:21.475Z,100615.12
2018-01-26T06:53:49.903Z,100620.33
2018-01-26T06:56:18.282Z,100629.23
2018-01-26T06:58:46.648Z,100639.20
2018-01-26T07:01:15.092Z,100638.26
2018-01-26T07:03:43.559Z,100645.03
2018-01-26T07:06:12.751Z,100640.23
2018-01-26T07:08:41.916Z,100645.11
2018-01-26T07:11:10.277Z,100650.61
2018-01-26T07:13:38.628Z,100645.55
2018-01-26T07:16:07.006Z,100650.83
2018-01-26T07:18:35.369Z,100649.26
2018-01-26T07:21:04.509Z,100649.69
2018-01-26T07:23:32.881Z,100653.63
2018-01-26T07:26:01.366Z,100654.17
2018-01-26T07:28:29.753Z,100659.86
2018-01-26T07:30:58.113Z,100667.13
2018-01-26T07:33:26.559Z,100673.66
2018-01-26T07:35:55.036Z,100674.30
2018-01-26T07:38:24.899Z,100677.59
2018-01-26T07:40:53.264Z,100684.45
2018-01-26T07:43:21.632Z,100676.58
2018-01-26T07:45:49.992Z,100684.25
2018-01-26T07:48:19.218Z,100680.09
2018-01-26T07:50:47.584Z,100680.06
2018-01-26T07:53:16.003Z,100687.47
2018-01-26T07:55:44.473Z,100692.34
2018-01-26T07:58:12.840Z,100698.27
2018-01-26T08:00:41.259Z,100698.05
2018-01-26T08:03:09.719Z,100702.10
2018-01-26T08:05:38.151Z,100693.59
2018-01-26T08:08:07.441Z,100699.09
2018-01-26T08:10:35.859Z,100699.22
2018-01-26T08:13:04.221Z,100697.73
2018-01-26T08:15:32.613Z,100704.60
2018-01-26T08:18:01.035Z,100705.11
2018-01-26T08:20:29.417Z,100700.43
2018-01-26T08:22:57.788Z,100703.86
2018-01-26T08:25:26.149Z,100703.87
2018-01-26T08:27:54.591Z,100705.18
2018-01-26T08:30:23.025Z,100714.47
2018-01-26T08:32:51.477Z,100707.83
2018-01-26T08:35:19.852Z,100715.41
2018-01-26T08:37:48.271Z,100713.70
2018-01-26T08:40:16.708Z,100718.58
2018-01-26T08:42:45.143Z,100721.37
2018-01-26T08:45:13.607Z,100717.95
2018-01-26T08:47:41.996Z,100714.94
2018-01-26T08:50:10.420Z,100718.99
2018-01-26T08:52:38.870Z,100712.16
2018-01-26T08:58:05.940Z,100717.63
2018-01-26T09:00:34.348Z,100722.06
2018-01-26T09:03:02.759Z,100720.22
2018-01-26T09:05:31.166Z,100733.30
2018-01-26T09:07:59.552Z,100731.47
2018-01-26T09:10:27.914Z,100736.53
2018-01-26T09:12:56.341Z,100747.18
2018-01-26T09:15:24.795Z,100740.96
2018-01-26T09:17:53.175Z,100744.58
2018-01-26T09:20:21.687Z,100748.38
2018-01-26T09:22:50.193Z,100753.59
2018-01-26T09:25:18.628Z,100759.73
2018-01-26T09:27:47.167Z,100764.80
2018-01-26T09:30:15.750Z,100770.78
2018-01-26T09:32:44.220Z,100776.14
2018-01-26T09:35:12.675Z,100778.63
2018-01-26T09:37:41.092Z,100779.50
2018-01-26T09:40:09.511Z,100777.44
2018-01-26T09:42:37.893Z,100778.56
2018-01-26T09:45:06.423Z,100787.30
2018-01-26T09:47:34.878Z,100797.34
2018-01-26T09:50:04.101Z,100798.84
2018-01-26T09:52:32.480Z,100801.00
2018-01-26T09:55:00.853Z,100800.05
2018-01-26T09:57:30.064Z,100814.72
2018-01-26T09:59:58.432Z,100816.50
2018-01-26T10:02:27.721Z,100818.68
2018-01-26T10:04:56.868Z,100824.09
2018-01-26T10:07:25.312Z,100823.45
2018-01-26T10:09:53.778Z,100834.98
2018-01-26T10:12:22.307Z,100836.23
2018-01-26T10:14:50.722Z,100840.74
2018-01-26T10:17:19.923Z,100846.39
2018-01-26T10:19:49.163Z,100843.55
2018-01-26T10:22:17.600Z,100848.37
2018-01-26T10:24:46.120Z,100853.47
2018-01-26T10:27:14.704Z,100856.85
2018-01-26T10:29:43.171Z,100847.79
2018-01-26T10:32:11.768Z,100858.28
2018-01-26T10:34:40.240Z,100854.18
2018-01-26T10:37:08.688Z,100857.95
2018-01-26T10:39:37.054Z,100854.14
2018-01-26T10:42:05.431Z,100860.98
2018-01-26T10:44:33.899Z,100864.50
2018-01-26T10:47:02.337Z,100864.90
2018-01-26T10:49:30.717Z,100862.88
2018-01-26T10:51:59.183Z,100867.64
2018-01-26T10:54:28.329Z,100865.53
2018-01-26T10:56:56.703Z,100861.06
2018-01-26T10:59:25.258Z,100864.87
2018-01-26T11:01:53.715Z,100869.25
2018-01-26T11:04:22.929Z,100872.17
2018-01-26T11:06:51.300Z,100876.80
2018-01-26T11:09:20.436Z,100883.97
2018-01-26T11:11:48.830Z,100883.28
2018-01-26T11:14:17.364Z,100894.20
2018-01-26T11:16:45.750Z,100891.69
2018-01-26T11:19:14.149Z,100899.34
2018-01-26T11:21:42.511Z,100894.42
2018-01-26T11:24:10.952Z,100898.63
2018-01-26T11:26:40.084Z,100896.34
2018-01-26T11:29:08.630Z,100899.73
2018-01-26T11:31:37.828Z,100899.98
2018-01-26T11:34:07.172Z,100901.84
2018-01-26T11:36:35.563Z,100901.95
2018-01-26T11:39:03.920Z,100895.83
2018-01-26T11:41:32.364Z,100901.78
2018-01-26T11:44:01.504Z,100901.89
2018-01-26T11:46:29.869Z,100905.67
2018-01-26T11:48:58.337Z,100905.59
2018-01-26T11:51:27.473Z,100910.11
2018-01-26T11:53:55.860Z,100912.08
2018-01-26T11:56:24.241Z,100904.28
2018-01-26T11:58:52.605Z,100908.83
2018-01-26T12:01:20.990Z,100914.41
2018-01-26T12:03:49.406Z,100910.02
2018-01-26T12:06:17.892Z,100916.43
2018-01-26T12:08:47.103Z,100922.26
2018-01-26T12:11:15.479Z,100922.43
2018-01-26T12:13:44.778Z,100915.75
2018-01-26T12:16:13.894Z,100919.98
2018-01-26T12:18:42.313Z,100916.73
2018-01-26T12:21:10.712Z,100913.75
2018-01-26T12:23:39.077Z,100922.41
2018-01-26T12:26:07.499Z,100929.35
2018-01-26T12:28:35.888Z,100927.12
2018-01-26T12:31:04.276Z,100924.09
2018-01-26T12:33:32.704Z,100920.34
2018-01-26T12:36:01.081Z,100920.27
2018-01-26T12:38:29.583Z,100921.01
2018-01-26T12:40:58.808Z,100914.73
2018-01-26T12:43:27.226Z,100920.53
2018-01-26T12:45:55.609Z,100917.96
2018-01-26T12:48:23.994Z,100918.25
2018-01-26T12:50:52.546Z,100928.82
2018-01-26T12:53:21.066Z,100931.85
2018-01-26T12:55:49.509Z,100934.94
2018-01-26T12:58:18.042Z,100940.58
2018-01-26T13:00:47.250Z,100943.95
2018-01-26T13:03:15.669Z,100944.67
2018-01-26T13:05:44.032Z,100938.92
2018-01-26T13:08:12.409Z,100948.38
2018-01-26T13:10:40.797Z,100941.23
2018-01-26T13:13:09.194Z,100958.09
2018-01-26T13:15:37.548Z,100965.69
2018-01-26T13:18:06.024Z,100972.58
2018-01-26T13:20:34.491Z,100974.02
2018-01-26T13:23:03.003Z,100979.30
2018-01-26T13:25:31.480Z,100978.83
2018-01-26T13:27:59.985Z,100977.13
2018-01-26T13:30:28.544Z,100976.59
2018-01-26T13:32:56.921Z,100978.44
2018-01-26T13:35:25.371Z,100977.59
2018-01-26T13:37:53.866Z,100981.20
2018-01-26T13:40:22.252Z,100994.08
2018-01-26T13:42:50.630Z,100991.30
2018-01-26T13:45:19.018Z,100993.30
2018-01-26T13:47:47.437Z,100991.30
2018-01-26T13:50:15.923Z,100994.95
2018-01-26T13:52:45.176Z,100997.38
2018-01-26T13:55:13.613Z,100998.95
2018-01-26T13:57:41.976Z,100994.78
2018-01-26T14:00:10.426Z,100995.69
2018-01-26T14:02:38.809Z,100999.56
2018-01-26T14:05:07.270Z,101003.73
2018-01-26T14:07:35.836Z,101006.73
2018-01-26T14:10:04.257Z,101007.95
2018-01-26T14:12:32.693Z,101012.39
2018-01-26T14:15:01.052Z,101026.80
2018-01-26T14:17:30.386Z,101025.89
2018-01-26T14:19:58.836Z,101017.15
2018-01-26T14:22:28.004Z,101028.94
2018-01-26T14:24:56.355Z,101041.80
2018-01-26T14:27:24.830Z,101043.98
2018-01-26T14:29:53.294Z,101043.45
2018-01-26T14:32:21.737Z,101048.34
2018-01-26T14:34:50.951Z,101045.55
2018-01-26T14:37:19.442Z,101040.42
2018-01-26T14:39:47.881Z,101044.92
2018-01-26T14:42:16.582Z,101046.25
2018-01-26T14:44:45.820Z,101051.45
2018-01-26T14:47:14.190Z,101054.79
2018-01-26T14:49:42.650Z,101062.71
2018-01-26T14:52:11.821Z,101066.91
2018-01-26T14:54:40.260Z,101066.16
2018-01-26T14:57:08.690Z,101070.91
2018-01-26T14:59:37.853Z,101069.31
2018-01-26T15:02:06.367Z,101077.69
2018-01-26T15:04:34.802Z,101078.70
2018-01-26T15:07:03.199Z,101083.08
2018-01-26T15:09:31.566Z,101084.14
2018-01-26T15:12:00.005Z,101085.49
2018-01-26T15:14:28.400Z,101081.11
2018-01-26T15:16:56.864Z,101093.30
2018-01-26T15:19:25.356Z,101091.72
2018-01-26T15:21:53.839Z,101094.53
2018-01-26T15:24:22.231Z,101096.28
2018-01-26T15:26:50.655Z,101091.84
2018-01-26T15:29:19.032Z,101098.41
2018-01-26T15:31:47.487Z,101102.78
2018-01-26T15:34:15.865Z,101106.84
2018-01-26T15:36:44.432Z,101101.31
2018-01-26T15:39:12.967Z,101110.16
2018-01-26T15:41:42.110Z,101117.34
2018-01-26T15:44:10.687Z,101120.27
2018-01-26T15:46:39.057Z,101137.45
2018-01-26T15:49:07.495Z,101135.84
2018-01-26T15:51:36.191Z,101135.43
2018-01-26T15:54:05.452Z,101139.60
2018-01-26T15:56:33.891Z,101143.25
2018-01-26T15:59:02.292Z,101149.59
2018-01-26T16:01:30.679Z,101148.33
2018-01-26T16:03:59.117Z,101156.33
2018-01-26T16:06:28.321Z,101151.66
2018-01-26T16:08:56.782Z,101161.21
2018-01-26T16:11:26.012Z,101164.25
2018-01-26T16:13:54.546Z,101164.33
2018-01-26T16:16:23.043Z,101168.91
2018-01-26T16:18:52.189Z,101170.19
2018-01-26T16:21:20.625Z,101177.14
2018-01-26T16:23:49.766Z,101182.45
2018-01-26T16:26:18.290Z,101185.38
2018-01-26T16:28:47.468Z,101193.08
2018-01-26T16:31:15.895Z,101197.95
2018-01-26T16:33:44.284Z,101195.34
2018-01-26T16:36:12.751Z,101199.70
2018-01-26T16:38:41.311Z,101206.59
2018-01-26T16:41:10.445Z,101218.41
2018-01-26T16:43:38.899Z,101219.87
2018-01-26T16:46:08.066Z,101228.52
2018-01-26T16:48:36.629Z,101233.72
2018-01-26T16:51:05.183Z,101237.70
2018-01-26T16:53:33.635Z,101241.95
2018-01-26T16:56:02.932Z,101241.53
2018-01-26T16:58:32.128Z,101243.81
2018-01-26T17:01:01.329Z,101250.45
2018-01-26T17:03:29.794Z,101250.21
2018-01-26T17:05:58.178Z,101265.28
2018-01-26T17:08:26.659Z,101254.58
2018-01-26T17:10:55.540Z,101258.13
2018-01-26T17:13:24.793Z,101260.14
2018-01-26T17:15:53.181Z,101265.22
2018-01-26T17:18:21.585Z,101264.48
2018-01-26T17:20:49.988Z,101268.55
2018-01-26T17:23:18.516Z,101264.37
2018-01-26T17:25:46.988Z,101271.42
2018-01-26T17:28:15.354Z,101273.80
2018-01-26T17:30:44.583Z,101274.94
2018-01-26T17:33:12.970Z,101267.68
2018-01-26T17:35:41.407Z,101274.10
2018-01-26T17:38:10.621Z,101275.42
2018-01-26T17:40:39.009Z,101275.31
2018-01-26T17:43:07.412Z,101278.76
2018-01-26T17:45:36.091Z,101281.34
2018-01-26T17:48:04.500Z,101279.97
2018-01-26T17:50:32.927Z,101290.38
2018-01-26T17:53:01.356Z,101290.34
2018-01-26T17:55:29.724Z,101293.69
2018-01-26T17:57:58.096Z,101288.75
2018-01-26T18:00:26.468Z,101293.39
2018-01-26T18:02:54.899Z,101300.40
2018-01-26T18:05:23.328Z,101295.91
2018-01-26T18:07:51.788Z,101299.98
2018-01-26T18:10:20.246Z,101310.73
2018-01-26T18:12:48.622Z,101309.98
2018-01-26T18:15:17.836Z,101311.73
2018-01-26T18:17:46.339Z,101315.11
2018-01-26T18:20:14.782Z,101321.64
2018-01-26T18:22:43.159Z,101322.64
2018-01-26T18:25:12.359Z,101332.08
2018-01-26T18:27:40.822Z,101337.58
2018-01-26T18:30:09.334Z,101339.98
2018-01-26T18:32:37.716Z,101336.80
2018-01-26T18:35:06.070Z,101340.98
2018-01-26T18:37:35.299Z,101348.22
2018-01-26T18:40:03.748Z,101351.01
2018-01-26T18:42:32.971Z,101354.05
2018-01-26T18:45:01.583Z,101363.17
2018-01-26T18:47:29.968Z,101354.22
2018-01-26T18:49:58.362Z,101356.52
2018-01-26T18:52:26.728Z,101364.70
2018-01-26T18:54:55.106Z,101363.88
2018-01-26T18:57:23.639Z,101368.92
2018-01-26T18:59:52.033Z,101365.75
2018-01-26T19:02:20.446Z,101365.55
2018-01-26T19:04:48.921Z,101358.03
2018-01-26T19:07:17.286Z,101370.27
2018-01-26T19:09:45.672Z,101375.96
2018-01-26T19:12:14.075Z,101382.41
2018-01-26T19:14:42.699Z,101383.92
2018-01-26T19:17:11.127Z,101391.95
2018-01-26T19:19:39.549Z,101396.92
2018-01-26T19:22:08.782Z,101394.03
2018-01-26T19:24:37.264Z,101403.44
2018-01-26T19:27:05.708Z,101402.18
2018-01-26T19:29:34.909Z,101400.85
2018-01-26T19:32:03.324Z,101406.11
2018-01-26T19:34:31.807Z,101406.45
2018-01-26T19:37:00.260Z,101410.59
2018-01-26T19:39:28.762Z,101406.53
2018-01-26T19:41:57.450Z,101409.47
2018-01-26T19:44:26.788Z,101421.42
2018-01-26T19:46:56.795Z,101417.58
2018-01-26T19:49:25.209Z,101419.42
2018-01-26T19:51:54.435Z,101422.98
2018-01-26T19:54:22.955Z,101428.16
2018-01-26T19:56:51.420Z,101425.45
2018-01-26T19:59:19.874Z,101432.30
2018-01-26T20:01:48.507Z,101429.02
2018-01-26T20:07:29.033Z,101438.60
2018-01-26T20:09:57.419Z,101439.53
2018-01-26T20:12:25.841Z,101442.83
2018-01-26T20:14:54.301Z,101439.91
2018-01-26T20:17:22.803Z,101451.28
2018-01-26T20:19:52.055Z,101449.12
2018-01-26T20:22:20.457Z,101448.86
2018-01-26T20:24:49.705Z,101446.81
2018-01-26T20:27:18.235Z,101450.03
2018-01-26T20:29:47.279Z,101418.42
2018-01-26T20:32:20.541Z,101460.76
2018-01-26T20:34:49.000Z,101465.46
2018-01-26T20:37:17.480Z,101462.89
2018-01-26T20:39:45.927Z,101472.34
2018-01-26T20:42:14.406Z,101473.48
2018-01-26T20:44:42.850Z,101477.05
2018-01-26T20:47:12.065Z,101477.67
2018-01-26T20:49:40.570Z,101483.45
2018-01-26T20:52:09.007Z,101487.13
2018-01-26T20:54:37.554Z,101493.38
2018-01-26T20:57:05.992Z,101497.17
2018-01-26T20:59:35.212Z,101500.68
2018-01-26T21:02:03.615Z,101498.56
2018-01-26T21:04:32.050Z,101500.54
2018-01-26T21:07:01.283Z,101501.17
2018-01-26T21:09:29.661Z,101507.08
2018-01-26T21:11:58.073Z,101518.05
2018-01-26T21:14:26.586Z,101520.14
2018-01-26T21:16:55.047Z,101528.70
2018-01-26T21:19:24.217Z,101523.54
2018-01-26T21:21:52.680Z,101526.93
2018-01-26T21:24:21.124Z,101531.63
2018-01-26T21:26:49.573Z,101530.72
2018-01-26T21:29:18.046Z,101532.27
2018-01-26T21:31:46.475Z,101526.20
2018-01-26T21:34:14.868Z,101529.80
2018-01-26T21:36:43.321Z,101533.93
2018-01-26T21:39:11.695Z,101540.92
2018-01-26T21:41:40.900Z,101539.33
2018-01-26T21:44:10.142Z,101545.34
2018-01-26T21:46:38.642Z,101542.33
2018-01-26T21:49:07.056Z,101542.55
2018-01-26T21:51:36.281Z,101546.66
2018-01-26T21:54:04.711Z,101547.02
2018-01-26T21:56:33.220Z,101546.61
2018-01-26T21:59:01.673Z,101547.66
2018-01-26T22:01:30.157Z,101553.27
2018-01-26T22:03:59.556Z,101561.36
2018-01-26T22:06:33.521Z,101565.55
2018-01-26T22:09:01.970Z,101567.07
2018-01-26T22:11:31.242Z,101572.52
2018-01-26T22:13:59.744Z,101571.80
2018-01-26T22:16:28.211Z,101586.97
2018-01-26T22:18:56.770Z,101587.44
2018-01-26T22:21:25.191Z,101588.15
2018-01-26T22:23:54.572Z,101597.54
2018-01-26T22:26:23.012Z,101599.41
2018-01-26T22:28:51.455Z,101607.14
2018-01-26T22:31:20.748Z,101602.59
2018-01-26T22:33:49.279Z,101608.19
2018-01-26T22:36:17.795Z,101615.19
2018-01-26T22:38:46.275Z,101615.19
2018-01-26T22:41:14.721Z,101619.70
2018-01-26T22:43:43.123Z,101629.45
2018-01-26T22:46:11.603Z,101624.01
2018-01-26T22:48:40.088Z,101631.95
2018-01-26T22:51:08.573Z,101637.91
2018-01-26T22:53:37.008Z,101632.73
2018-01-26T22:56:05.409Z,101633.09
2018-01-26T22:58:33.915Z,101635.95
2018-01-26T23:01:03.171Z,101639.63
2018-01-26T23:03:31.722Z,101642.58
2018-01-26T23:06:00.097Z,101642.28
2018-01-26T23:08:28.479Z,101654.26
2018-01-26T23:10:56.961Z,101649.43
2018-01-26T23:13:26.146Z,101655.86
2018-01-26T23:15:54.598Z,101653.63
2018-01-26T23:18:22.997Z,101656.43
2018-01-26T23:20:51.430Z,101657.51
2018-01-26T23:23:20.044Z,101656.09
2018-01-26T23:25:48.492Z,101654.81
2018-01-26T23:28:16.908Z,101663.20
2018-01-26T23:30:46.197Z,101666.16
2018-01-26T23:33:14.627Z,101669.37
2018-01-26T23:35:43.082Z,101672.58
2018-01-26T23:38:11.488Z,101678.59
2018-01-26T23:40:40.031Z,101678.14
2018-01-26T23:43:08.582Z,101673.02
2018-01-26T23:45:36.971Z,101677.80
2018-01-26T23:48:05.386Z,101680.23
2018-01-26T23:50:33.833Z,101681.28
2018-01-26T23:53:02.295Z,101678.04
2018-01-26T23:55:30.835Z,101681.78
2018-01-26T23:57:59.248Z,101683.48
